Aviation Digital Data Service (ADDS)

Output produced by METARs form (2255 UTC 23 May 2022)
found at http://www.aviationweather.gov/metar/data/
 
DGAA 232200Z 21011KT BKN012 28/24 Q1014 NOSIG
TAF DGAA 231700Z 2318/2424 23005KT 9999 SCT012 
     PROB30 
     TEMPO 2320/2402 5000 TSARA BKN010 FEW030CB 
     BECMG 2403/2406 32010KT BKN010
       
TAF DGSI 231100Z 2312/2412 23010KT 9999 FEW020 
     PROB30 
     TEMPO 2317/2321 5000 TSRA BKN010 FEW025CB 
     BECMG 2405/2409 BKN010
       
TAF DGLE 231100Z 2312/2412 23010KT 9999 SCT016 
     PROB30 
     TEMPO 2317/2321 6000 TSRA 
     BECMG 2400/2402 CAVOK